Moore, Texas
Current Conditions -  °F | °C
As of 8:55 AM on Wednesday 26 Nov 2014 (Local Time) from KCVB Reporting Station
Clear Clear  
Wind Chill: 50°   Ceiling: Unl
Heat Index: 50°   Visibility: 10mi
Dew Point: 34°   Wind: 3mph
Humidity: 53%   Direction: 270°W
Pressure: 30.27"   Gusts: NA
Location:  29.06°N, 99.01°W
Report Text: KCVB 261455Z AUTO 27003KT 10SM CLR 10/01 A3027 RMK AO2 T01010010
Loading
Personal Weather Stations






























Interactive Weather Map New forecast layout! Learn more

10-Day Weather Forecast

Advertisements
Track Severe Weather on mobile